Time;durP1;ratioP1;P1;durP2;ratioP2;P2;SDS_P1;SDS_P2;PMS_P1;PMS_P2;Temp;Humidity;BMP_temperature;BMP_pressure;BME280_temperature;BME280_humidity;BME280_pressure;Samples;Min_cycle;Max_cycle;Signal;HPM_P1;HPM_P2
2022/01/13 00:01:41;;;;;;;26.37;16.37;;;0.10;82.70;;;0.58;64.00;99814.22;4964009;29;20055;-37
2022/01/13 00:04:12;;;;;;;21.73;14.40;;;0.10;82.50;;;0.58;63.49;99801.13;4964333;29;20249;-37
2022/01/13 00:06:41;;;;;;;21.20;13.27;;;0.10;82.50;;;0.59;64.05;99805.44;4963792;29;20053;-37
2022/01/13 00:09:10;;;;;;;23.63;15.13;;;0.10;82.80;;;0.62;63.75;99804.53;4963874;29;20066;-37
2022/01/13 00:11:38;;;;;;;25.30;15.27;;;0.20;82.50;;;0.65;63.33;99809.66;4964392;29;20055;-37
2022/01/13 00:17:07;;;;;;;24.87;14.30;;;0.20;82.40;;;0.69;64.07;99818.28;4963900;29;20379;-37
2022/01/13 00:24:46;;;;;;;25.77;14.13;;;0.50;81.80;;;0.85;63.64;99824.78;4964147;29;20245;-37
2022/01/13 00:27:15;;;;;;;22.07;13.97;;;0.60;81.20;;;0.87;63.45;99835.22;4963630;29;20043;-37
2022/01/13 00:29:45;;;;;;;23.13;14.40;;;0.60;81.30;;;0.88;63.31;99829.94;4938998;29;20059;-37
2022/01/13 00:32:15;;;;;;;26.37;16.03;;;0.50;81.20;;;0.90;63.81;99832.53;4964521;29;20058;-37
2022/01/13 00:34:44;;;;;;;24.63;14.90;;;0.60;80.90;;;0.93;63.58;99830.66;4963777;29;20047;-37
2022/01/13 00:37:12;;;;;;;24.90;14.63;;;0.60;80.70;;;0.94;63.84;99842.00;4963247;29;20047;-37
2022/01/13 00:39:39;;;;;;;27.27;17.40;;;0.60;80.70;;;0.95;63.74;99844.59;4963908;29;20051;-37
2022/01/13 00:42:08;;;;;;;30.97;17.70;;;0.60;80.70;;;0.96;63.53;99846.28;4963775;29;20051;-38
2022/01/13 00:44:37;;;;;;;27.83;16.73;;;0.60;80.40;;;0.95;63.79;99844.59;4963751;29;20047;-37
2022/01/13 00:47:09;;;;;;;24.67;14.47;;;0.50;80.50;;;0.95;63.69;99855.09;4963373;29;20350;-37
2022/01/13 00:49:37;;;;;;;27.77;16.90;;;0.60;81.20;;;0.94;63.48;99858.59;4963210;29;20423;-37
2022/01/13 00:52:05;;;;;;;27.23;15.83;;;0.50;81.10;;;0.95;63.11;99859.44;4963880;29;20036;-37
2022/01/13 00:54:34;;;;;;;24.57;14.63;;;0.60;81.40;;;0.98;63.31;99860.22;4962936;29;20051;-37
2022/01/13 00:57:02;;;;;;;27.43;15.90;;;0.60;81.20;;;1.03;63.54;99853.97;4946392;29;20043;-37
2022/01/13 00:59:30;;;;;;;26.97;14.70;;;0.70;81.20;;;1.05;63.96;99860.91;4963425;29;20145;-37
2022/01/13 01:01:58;;;;;;;25.83;16.23;;;0.70;81.10;;;1.07;63.48;99864.34;4963411;29;20062;-38
2022/01/13 01:04:26;;;;;;;25.30;14.97;;;0.70;81.00;;;1.08;64.00;99847.69;4963597;29;20047;-37
2022/01/13 01:06:54;;;;;;;24.17;14.33;;;0.70;81.10;;;1.08;63.76;99860.78;4963392;29;20442;-37
2022/01/13 01:09:37;;;;;;;27.73;16.03;;;0.70;81.00;;;1.12;63.73;99862.41;4963771;29;20245;-37
2022/01/13 01:12:08;;;;;;;28.00;15.73;;;0.80;80.70;;;1.15;63.64;99859.72;4963733;29;20054;-37
2022/01/13 01:14:40;;;;;;;23.53;15.03;;;0.80;80.80;;;1.19;63.00;99860.47;4963342;29;20061;-37
2022/01/13 01:17:09;;;;;;;34.47;18.00;;;0.90;80.80;;;1.20;63.33;99862.16;4963318;29;20337;-37
2022/01/13 01:19:40;;;;;;;27.93;15.70;;;0.90;80.60;;;1.24;63.26;99860.31;4963518;29;20054;-37
2022/01/13 01:22:34;;;;;;;25.70;15.13;;;0.90;80.50;;;1.23;63.33;99863.88;4963716;29;20054;-37
2022/01/13 01:27:45;;;;;;;30.83;16.27;;;0.80;80.00;;;1.20;63.49;99866.56;4963079;29;20058;-37
2022/01/13 01:30:30;;;;;;;46.00;20.27;;;0.80;80.50;;;1.22;63.48;99870.00;4963556;29;20047;-38
2022/01/13 01:32:58;;;;;;;35.27;17.43;;;0.80;80.60;;;1.22;63.88;99880.50;4963876;29;20045;-38
2022/01/13 01:35:26;;;;;;;24.67;15.40;;;0.90;80.50;;;1.17;63.15;99881.50;4963447;29;20043;-37
2022/01/13 01:37:55;;;;;;;22.80;15.00;;;0.80;80.80;;;1.12;62.96;99883.41;4963154;29;20363;-37
2022/01/13 01:40:23;;;;;;;23.93;14.83;;;0.70;81.50;;;1.07;64.20;99879.22;4963524;29;20050;-38
2022/01/13 01:42:51;;;;;;;25.77;14.47;;;0.60;83.00;;;1.05;63.93;99874.03;4963318;29;20061;-37
2022/01/13 01:45:19;;;;;;;26.13;15.33;;;0.60;83.70;;;1.07;63.76;99876.59;4960907;29;20053;-37
2022/01/13 01:47:51;;;;;;;25.87;16.43;;;0.60;83.90;;;1.10;64.23;99879.13;4948355;29;20353;-37
2022/01/13 01:50:22;;;;;;;28.17;17.70;;;0.70;84.20;;;1.14;64.04;99873.75;4966833;29;20055;-37
2022/01/13 01:52:53;;;;;;;28.13;15.90;;;0.80;84.20;;;1.17;64.29;99876.25;4966688;29;20055;-37
2022/01/13 01:55:21;;;;;;;23.63;14.73;;;0.90;84.00;;;1.20;64.09;99877.91;4966365;29;20342;-37
2022/01/13 01:57:53;;;;;;;25.73;14.73;;;0.80;83.90;;;1.21;63.95;99874.41;4964934;29;20051;-37
2022/01/13 02:00:26;;;;;;;25.03;15.27;;;0.90;84.10;;;1.21;63.69;99866.53;4965328;29;20059;-37
2022/01/13 02:02:55;;;;;;;24.87;14.50;;;0.80;84.20;;;1.22;63.72;99864.75;4966679;29;20051;-37
2022/01/13 02:05:23;;;;;;;29.73;16.50;;;0.80;84.50;;;1.21;64.52;99855.19;4966563;29;20337;-37
2022/01/13 02:07:51;;;;;;;27.43;15.33;;;0.80;84.20;;;1.18;63.85;99845.63;4966187;29;20069;-38
2022/01/13 02:10:20;;;;;;;26.50;15.20;;;0.80;84.80;;;1.16;64.05;99842.19;4966306;29;20059;-37
2022/01/13 02:12:51;;;;;;;24.17;14.77;;;0.70;84.70;;;1.15;63.90;99845.72;4966393;29;20047;-38
2022/01/13 02:17:51;;;;;;;23.73;14.70;;;0.70;85.30;;;1.11;64.15;99838.88;4965567;29;20081;-37
2022/01/13 02:20:19;;;;;;;31.17;16.50;;;0.60;85.20;;;1.08;63.95;99839.81;4949539;29;20054;-37
2022/01/13 02:22:47;;;;;;;23.27;14.33;;;0.60;84.60;;;1.11;63.68;99838.88;4966407;29;20077;-37
2022/01/13 02:25:17;;;;;;;25.50;16.07;;;0.70;84.70;;;1.10;63.74;99838.00;4965973;29;20054;-37
2022/01/13 02:27:45;;;;;;;28.03;16.67;;;0.60;83.90;;;1.11;63.88;99838.88;4965703;29;20051;-37
2022/01/13 02:30:13;;;;;;;23.10;15.30;;;0.70;84.00;;;1.08;64.47;99837.19;4964653;29;20051;-37
2022/01/13 02:32:41;;;;;;;25.10;14.60;;;0.60;83.80;;;1.06;64.15;99828.50;4966098;29;20051;-37
2022/01/13 02:35:09;;;;;;;24.20;14.07;;;0.60;84.20;;;1.10;64.23;99818.78;4966212;29;20053;-38
2022/01/13 02:37:37;;;;;;;24.70;16.00;;;0.60;84.30;;;1.08;64.36;99818.81;4965203;29;20073;-38
2022/01/13 02:40:06;;;;;;;21.67;14.00;;;0.60;84.00;;;1.10;63.96;99822.25;4964983;29;20334;-38
2022/01/13 02:42:34;;;;;;;27.57;15.47;;;0.60;84.40;;;1.09;63.95;99815.31;4966098;29;20061;-38
2022/01/13 02:45:05;;;;;;;20.77;14.53;;;0.60;84.20;;;1.10;63.72;99821.41;4965726;29;20053;-37
2022/01/13 02:47:47;;;;;;;22.77;14.73;;;0.70;84.40;;;1.08;64.00;99816.19;4965492;29;20051;-37
2022/01/13 02:50:15;;;;;;;23.10;14.43;;;0.60;84.00;;;1.07;63.76;99811.88;4965864;29;20334;-38
2022/01/13 02:52:43;;;;;;;23.90;14.73;;;0.60;83.70;;;1.06;63.82;99809.28;4965693;29;20053;-37
2022/01/13 02:55:11;;;;;;;26.67;14.17;;;0.60;83.70;;;1.06;64.21;99814.53;4948449;29;20061;-37
2022/01/13 02:57:39;;;;;;;24.27;14.73;;;0.60;83.60;;;1.01;63.56;99804.19;4964887;28;20047;-37
2022/01/13 03:00:08;;;;;;;25.03;13.90;;;0.50;83.00;;;1.00;63.58;99802.47;4963790;29;20061;-37
2022/01/13 03:02:36;;;;;;;25.73;14.43;;;0.50;83.00;;;0.98;63.98;99805.13;4965542;29;20088;-37
2022/01/13 03:05:11;;;;;;;24.17;14.20;;;0.50;83.10;;;1.00;64.04;99809.50;4965062;29;20065;-37
2022/01/13 03:07:39;;;;;;;24.00;14.87;;;0.60;83.30;;;0.98;63.83;99804.28;4964746;29;20055;-37
2022/01/13 03:10:10;;;;;;;25.30;14.87;;;0.50;83.20;;;1.00;64.06;99805.09;4948299;29;20051;-37
2022/01/13 03:12:41;;;;;;;21.77;12.90;;;0.60;83.50;;;1.00;64.14;99807.72;4965390;29;20047;-37
2022/01/13 03:15:10;;;;;;;22.67;14.00;;;0.60;83.20;;;0.96;63.60;99806.94;4964343;29;20244;-37
2022/01/13 03:17:37;;;;;;;29.03;15.23;;;0.50;83.20;;;0.97;63.95;99813.06;4964156;29;20069;-37
2022/01/13 03:20:06;;;;;;;22.53;13.97;;;0.50;83.40;;;1.00;63.90;99806.88;4965178;29;20043;-37
2022/01/13 03:22:34;;;;;;;26.07;14.93;;;0.60;83.50;;;1.02;63.64;99803.28;4965117;29;20043;-37
2022/01/13 03:25:04;;;;;;;23.47;15.03;;;0.60;83.00;;;1.01;63.80;99791.09;4964147;29;20061;-37
2022/01/13 03:27:35;;;;;;;25.80;14.70;;;0.60;82.80;;;0.94;63.32;99782.53;4964714;29;20069;-37
2022/01/13 03:30:06;;;;;;;23.27;15.37;;;0.50;82.60;;;0.94;63.91;99781.69;4964874;29;20047;-37
2022/01/13 03:32:37;;;;;;;27.77;14.67;;;0.40;83.20;;;0.91;63.22;99774.78;4965036;29;20058;-37
2022/01/13 03:35:07;;;;;;;25.93;14.57;;;0.40;83.20;;;0.92;63.36;99786.13;4964888;29;20051;-37
2022/01/13 03:37:35;;;;;;;21.83;12.90;;;0.40;83.40;;;0.90;63.48;99780.91;4964166;29;20055;-37
2022/01/13 03:40:04;;;;;;;25.23;14.67;;;0.40;84.10;;;0.89;63.65;99780.97;4947977;29;20051;-37
2022/01/13 03:42:32;;;;;;;27.87;15.67;;;0.50;83.30;;;0.89;63.88;99781.84;4964767;29;20261;-37
2022/01/13 03:45:00;;;;;;;20.63;12.83;;;0.50;83.20;;;0.89;63.39;99787.09;4964298;29;20063;-37
2022/01/13 03:47:28;;;;;;;20.37;13.83;;;0.50;82.90;;;0.90;63.79;99787.94;4964319;29;20060;-38
2022/01/13 03:49:56;;;;;;;23.87;13.63;;;0.50;82.50;;;0.90;63.28;99788.78;4964521;29;20050;-37
2022/01/13 03:52:24;;;;;;;22.50;13.03;;;0.50;82.30;;;0.90;63.43;99783.53;4964366;29;20051;-37
2022/01/13 03:55:55;;;;;;;23.70;14.03;;;0.50;82.10;;;0.86;63.30;99787.16;4964500;29;20049;-37
2022/01/13 03:59:19;;;;;;;26.50;13.23;;;0.50;82.00;;;0.85;63.51;99795.06;4949792;29;20051;-37
2022/01/13 04:02:11;;;;;;;19.57;12.33;;;0.50;82.00;;;0.84;63.71;99785.50;4964520;29;20252;-37
2022/01/13 04:04:47;;;;;;;22.87;12.83;;;0.50;81.80;;;0.82;63.07;99795.19;4964330;29;20051;-37
2022/01/13 04:07:16;;;;;;;23.00;13.60;;;0.40;82.10;;;0.79;63.61;99793.50;4963999;29;20051;-37
2022/01/13 04:09:44;;;;;;;32.30;17.60;;;0.30;82.40;;;0.77;63.16;99806.66;4956262;28;20341;-37
2022/01/13 04:12:14;;;;;;;27.83;16.07;;;0.30;82.20;;;0.69;63.28;99799.94;4964360;29;20244;-37
2022/01/13 04:14:59;;;;;;;33.28;16.98;;;0.20;83.00;;;0.67;63.06;99802.59;4964181;29;20226;-37
2022/01/13 04:17:28;;;;;;;33.10;17.17;;;0.20;83.30;;;0.68;63.23;99800.81;4963033;29;20051;-38
2022/01/13 04:19:56;;;;;;;29.77;15.53;;;0.30;83.60;;;0.65;63.94;99799.16;4963631;29;20059;-38
2022/01/13 04:22:25;;;;;;;30.77;16.47;;;0.20;83.50;;;0.65;63.02;99809.66;4964049;29;20050;-38
2022/01/13 04:24:54;;;;;;;32.33;17.17;;;0.20;83.50;;;0.62;63.87;99804.53;4964372;29;20360;-37
2022/01/13 04:27:24;;;;;;;30.80;16.37;;;0.20;83.50;;;0.58;63.15;99802.88;4963714;29;20249;-37
2022/01/13 04:30:11;;;;;;;26.07;15.30;;;0.10;83.70;;;0.52;63.42;99792.56;4963977;29;20039;-37
2022/01/13 04:32:39;;;;;;;30.83;15.70;;;0.10;83.90;;;0.51;63.33;99794.34;4964015;29;20043;-37
2022/01/13 04:35:10;;;;;;;30.10;16.87;;;0.00;83.70;;;0.49;64.16;99795.31;4964165;29;20043;-37
2022/01/13 04:37:39;;;;;;;28.00;16.17;;;0.10;84.00;;;0.47;63.25;99797.13;4963571;29;20341;-37
2022/01/13 04:40:11;;;;;;;26.77;16.13;;;0.10;83.80;;;0.47;63.10;99795.34;4964130;29;20047;-37
2022/01/13 04:42:42;;;;;;;32.50;17.20;;;0.10;84.10;;;0.45;63.51;99794.53;4964031;29;20087;-37
2022/01/13 04:45:10;;;;;;;31.57;17.47;;;0.00;83.80;;;0.43;63.94;99806.81;4961219;29;20047;-37
2022/01/13 04:47:38;;;;;;;27.07;16.33;;;0.00;83.80;;;0.41;64.20;99799.88;4962766;29;20064;-37
2022/01/13 04:50:07;;;;;;;37.77;18.47;;;0.00;84.10;;;0.42;63.15;99801.63;4963924;29;20047;-37
2022/01/13 04:52:34;;;;;;;35.23;18.43;;;0.00;84.40;;;0.42;63.77;99804.25;4963724;29;20054;-38
2022/01/13 04:55:09;;;;;;;30.17;16.87;;;0.00;83.90;;;0.43;63.41;99803.31;4963953;29;20042;-37
2022/01/13 04:57:37;;;;;;;23.20;16.20;;;0.10;84.00;;;0.42;63.25;99817.34;4963413;29;20058;-38
2022/01/13 05:00:10;;;;;;;31.30;17.30;;;0.00;83.80;;;0.39;64.31;99811.28;4962846;29;20059;-37
2022/01/13 05:02:37;;;;;;;25.27;14.80;;;0.00;84.10;;;0.40;64.38;99812.13;4963905;29;20054;-37
2022/01/13 05:05:06;;;;;;;27.77;16.50;;;0.00;84.20;;;0.40;63.74;99817.38;4963904;29;20159;-37
2022/01/13 05:07:34;;;;;;;26.27;16.07;;;0.00;84.20;;;0.37;63.56;99831.44;4963384;29;20333;-37
2022/01/13 05:10:03;;;;;;;29.80;16.67;;;0.00;84.40;;;0.36;64.47;99827.09;4963286;29;20054;-37
2022/01/13 05:12:37;;;;;;;28.20;16.93;;;0.00;84.80;;;0.36;64.22;99821.00;4963655;29;20074;-37
2022/01/13 05:15:07;;;;;;;;;;;0.00;85.10;;;0.30;63.73;99819.41;4964300;29;20047;-37
2022/01/13 05:18:01;;;;;;;31.07;15.70;;;-0.10;85.60;;;0.30;64.12;99823.78;4962994;29;20112;-37
2022/01/13 05:20:39;;;;;;;29.35;15.48;;;-0.10;86.20;;;0.29;63.90;99819.44;4963733;28;20047;-37
2022/01/13 05:23:11;;;;;;;28.70;15.63;;;-0.20;86.60;;;0.31;64.31;99813.28;4966365;29;20045;-38
2022/01/13 05:25:42;;;;;;;28.23;16.90;;;-0.10;87.10;;;0.35;64.38;99824.50;4967487;29;20047;-37
2022/01/13 05:28:11;;;;;;;29.93;16.83;;;0.00;86.80;;;0.36;64.96;99821.84;4966833;29;20051;-37
2022/01/13 05:30:40;;;;;;;23.80;14.27;;;0.00;86.70;;;0.36;64.46;99819.22;4967040;29;20067;-37
2022/01/13 05:33:08;;;;;;;26.83;15.03;;;0.00;86.50;;;0.37;63.97;99826.19;4967146;29;20043;-37
2022/01/13 05:35:37;;;;;;;25.93;14.37;;;0.00;86.60;;;0.38;64.56;99821.81;4967265;29;20050;-37
2022/01/13 05:38:07;;;;;;;25.20;13.80;;;0.00;86.50;;;0.40;64.75;99830.47;4966720;29;20046;-37
2022/01/13 05:40:37;;;;;;;26.97;16.00;;;0.00;86.10;;;0.37;64.26;99826.19;4966994;29;20226;-37
2022/01/13 05:43:06;;;;;;;27.27;14.87;;;0.00;85.90;;;0.35;64.32;99838.50;4967044;29;20473;-37
2022/01/13 05:45:39;;;;;;;23.60;15.07;;;0.00;86.10;;;0.38;65.16;99824.44;4966931;29;20065;-37
2022/01/13 05:48:07;;;;;;;41.63;22.03;;;0.10;86.40;;;0.43;65.17;99830.41;4966520;29;20046;-37
2022/01/13 05:50:36;;;;;;;34.73;19.37;;;0.10;87.20;;;0.51;65.03;99838.06;4966671;29;20229;-38
2022/01/13 05:53:05;;;;;;;33.47;19.73;;;0.20;86.60;;;0.55;64.58;99839.69;4966374;29;20341;-37
2022/01/13 05:55:33;;;;;;;32.07;18.30;;;0.20;86.30;;;0.58;65.04;99843.06;4966110;29;20055;-37
2022/01/13 05:58:04;;;;;;;29.83;16.80;;;0.30;86.30;;;0.60;64.78;99843.00;4965765;29;20053;-37
2022/01/13 06:00:33;;;;;;;28.60;17.00;;;0.30;86.30;;;0.62;64.50;99843.84;4965785;29;20055;-37
2022/01/13 06:03:02;;;;;;;27.40;16.33;;;0.30;86.10;;;0.66;65.36;99841.97;4966343;29;20253;-37
2022/01/13 06:05:30;;;;;;;30.00;16.13;;;0.40;85.90;;;0.68;64.52;99851.53;4966268;29;20051;-37
2022/01/13 06:07:58;;;;;;;31.97;17.17;;;0.40;86.30;;;0.70;64.98;99836.59;4965854;29;20050;-37
2022/01/13 06:10:26;;;;;;;25.60;15.63;;;0.40;86.20;;;0.71;65.04;99837.47;4966238;29;20237;-37
2022/01/13 06:12:54;;;;;;;31.13;18.60;;;0.40;86.30;;;0.69;64.68;99837.50;4966160;29;20043;-37
2022/01/13 06:15:25;;;;;;;26.80;16.77;;;0.30;86.30;;;0.68;64.51;99827.94;4966352;29;20051;-37
2022/01/13 06:17:56;;;;;;;28.77;17.33;;;0.30;86.50;;;0.72;64.44;99833.94;4965717;29;20395;-37
2022/01/13 06:20:24;;;;;;;27.77;16.40;;;0.30;86.00;;;0.71;65.09;99837.47;4965931;29;20061;-37
2022/01/13 06:22:53;;;;;;;25.20;14.50;;;0.30;86.40;;;0.72;64.95;99832.16;4966047;29;20055;-37
2022/01/13 06:25:21;;;;;;;29.23;17.30;;;0.30;86.20;;;0.73;65.24;99825.16;4965985;29;20078;-37
2022/01/13 06:27:50;;;;;;;27.47;16.47;;;0.40;86.40;;;0.74;64.64;99826.88;4964894;29;20063;-37
2022/01/13 06:30:37;;;;;;;29.23;16.00;;;0.40;86.20;;;0.72;64.60;99828.69;4965476;29;20061;-37
2022/01/13 06:33:05;;;;;;;30.13;16.70;;;0.30;87.00;;;0.69;64.73;99826.16;4965624;28;20066;-37
2022/01/13 06:35:33;;;;;;;28.03;17.27;;;0.30;86.80;;;0.69;65.02;99826.16;4965734;29;20047;-37
2022/01/13 06:38:01;;;;;;;27.73;16.57;;;0.30;87.30;;;0.68;64.89;99835.78;4965339;29;20035;-38
2022/01/13 06:40:30;;;;;;;31.23;16.83;;;0.30;87.50;;;0.68;65.08;99838.41;4965711;29;20061;-38
2022/01/13 06:42:58;;;;;;;37.70;19.23;;;0.30;87.40;;;0.69;65.07;99834.88;4965627;29;20364;-37
2022/01/13 06:45:26;;;;;;;40.27;20.67;;;0.30;87.40;;;0.67;64.72;99844.53;4965384;29;20214;-37
2022/01/13 06:47:54;;;;;;;33.53;19.57;;;0.30;87.30;;;0.69;64.79;99845.34;4965222;29;20059;-37
2022/01/13 06:50:22;;;;;;;30.47;18.80;;;0.30;87.10;;;0.65;64.90;99846.34;4965484;29;20057;-37
2022/01/13 06:52:49;;;;;;;30.93;18.53;;;0.30;87.00;;;0.62;64.48;99841.22;4965703;29;20070;-37
2022/01/13 06:55:17;;;;;;;34.27;18.20;;;0.20;87.30;;;0.61;65.18;99847.34;4965832;29;20214;-37
2022/01/13 06:57:46;;;;;;;31.87;18.13;;;0.20;87.90;;;0.62;64.71;99850.81;4965268;29;20051;-37
2022/01/13 07:00:14;;;;;;;31.17;17.63;;;0.20;88.00;;;0.59;64.88;99855.25;4964951;29;20234;-37
2022/01/13 07:02:42;;;;;;;31.77;18.13;;;0.20;88.00;;;0.61;64.52;99870.94;4964382;29;20067;-37
2022/01/13 07:05:11;;;;;;;30.07;18.27;;;0.20;88.00;;;0.61;65.11;99877.97;4965287;29;20057;-37
2022/01/13 07:07:40;;;;;;;37.13;19.90;;;0.20;88.00;;;0.57;64.73;99879.81;4964838;29;20232;-37
2022/01/13 07:10:10;;;;;;;37.00;18.33;;;0.20;88.00;;;0.58;64.99;99879.78;4964979;29;20051;-37
2022/01/13 07:12:40;;;;;;;40.03;18.97;;;0.20;88.10;;;0.59;64.74;99886.72;4964547;29;20054;-37
2022/01/13 07:15:10;;;;;;;33.43;19.60;;;0.20;88.00;;;0.59;65.35;99893.72;4965140;29;20043;-37
2022/01/13 07:17:39;;;;;;;33.87;18.70;;;0.20;87.90;;;0.59;65.27;99889.34;4964560;29;20255;-37
2022/01/13 07:20:08;;;;;;;31.80;19.60;;;0.20;87.90;;;0.59;65.10;99894.56;4965257;29;20244;-37
2022/01/13 07:22:38;;;;;;;32.40;18.67;;;0.20;88.10;;;0.57;65.21;99891.16;4964925;29;20241;-37
2022/01/13 07:25:08;;;;;;;31.07;16.73;;;0.20;87.90;;;0.57;65.60;99890.28;4964313;29;20249;-38
2022/01/13 07:27:40;;;;;;;30.60;17.37;;;0.20;88.50;;;0.57;64.82;99899.00;4964273;29;20047;-37
2022/01/13 07:30:11;;;;;;;28.60;17.47;;;0.20;89.90;;;0.58;64.95;99897.25;4964357;29;20046;-38
2022/01/13 07:32:39;;;;;;;28.60;17.93;;;0.20;89.10;;;0.60;65.22;99900.69;4963583;29;20047;-37
2022/01/13 07:35:09;;;;;;;26.57;15.63;;;0.20;89.50;;;0.59;65.83;99894.56;4964728;29;20078;-37
2022/01/13 07:37:37;;;;;;;30.50;16.33;;;0.20;89.20;;;0.63;65.15;99908.47;4964323;29;20043;-37
2022/01/13 07:40:08;;;;;;;31.37;18.17;;;0.20;89.90;;;0.68;65.68;99910.94;4964503;29;20047;-37
2022/01/13 07:42:41;;;;;;;31.00;19.50;;;0.30;89.90;;;0.70;65.07;99901.28;4964723;29;20043;-38
2022/01/13 07:45:14;;;;;;;25.03;16.97;;;0.40;89.60;;;0.77;65.45;99903.66;4963035;28;20057;-37
2022/01/13 07:47:42;;;;;;;34.42;18.50;;;0.50;89.60;;;0.82;64.92;99902.72;4953000;29;20051;-37
2022/01/13 07:50:13;;;;;;;29.27;17.07;;;0.60;89.00;;;0.83;64.92;99899.16;4964087;29;20047;-38
2022/01/13 07:52:41;;;;;;;30.30;17.03;;;0.50;88.80;;;0.84;65.20;99900.91;4964712;29;20059;-37
2022/01/13 07:55:11;;;;;;;31.17;17.70;;;0.50;89.20;;;0.86;65.23;99899.94;4963440;29;20239;-36
2022/01/13 07:57:39;;;;;;;29.80;17.30;;;0.50;88.70;;;0.84;65.50;99893.88;4963737;29;20202;-36
2022/01/13 08:00:11;;;;;;;26.17;15.17;;;0.50;88.90;;;0.86;65.74;99899.94;4963726;29;20055;-36
2022/01/13 08:02:42;;;;;;;26.40;16.03;;;0.50;89.50;;;0.91;65.22;99902.41;4964278;29;20053;-36
2022/01/13 08:05:10;;;;;;;35.30;19.83;;;0.50;90.20;;;0.96;65.22;99906.63;4963937;29;20044;-36
2022/01/13 08:07:38;;;;;;;33.10;19.90;;;0.60;89.80;;;1.01;65.90;99916.13;4946864;29;20043;-36
2022/01/13 08:10:06;;;;;;;25.87;15.97;;;0.70;89.70;;;1.01;65.68;99908.25;4963889;29;20244;-36
2022/01/13 08:12:34;;;;;;;18.97;12.60;;;0.70;89.70;;;0.95;66.37;99906.66;4964117;29;20040;-36
2022/01/13 08:15:04;;;;;;;19.40;12.50;;;0.80;90.20;;;1.00;66.28;99906.53;4964102;29;20179;-36
2022/01/13 08:20:18;;;;;;;20.90;12.27;;;0.90;89.80;;;1.09;65.89;99899.25;4963742;29;20062;-36
2022/01/13 08:22:46;;;;;;;23.37;14.00;;;0.90;89.60;;;1.14;65.60;99909.59;4963952;29;20061;-36
2022/01/13 08:25:15;;;;;;;22.33;13.00;;;0.90;89.70;;;1.17;65.56;99904.28;4963971;29;20050;-36
2022/01/13 08:27:43;;;;;;;21.40;13.20;;;0.90;89.60;;;1.21;65.98;99905.88;4963882;29;20061;-37
2022/01/13 08:30:12;;;;;;;21.90;12.20;;;0.90;89.60;;;1.25;65.77;99899.63;4963846;29;20063;-37
2022/01/13 08:32:40;;;;;;;23.30;13.07;;;1.00;89.80;;;1.31;66.28;99907.31;4963721;29;20043;-37
2022/01/13 08:35:10;;;;;;;21.83;13.30;;;1.00;89.50;;;1.34;65.95;99901.97;4963741;29;20055;-37
2022/01/13 08:37:38;;;;;;;21.13;13.03;;;1.00;88.90;;;1.37;66.10;99907.13;4963238;29;20043;-37
2022/01/13 08:40:11;;;;;;;24.53;14.10;;;1.10;89.00;;;1.38;65.54;99911.47;4963947;29;20047;-37
2022/01/13 08:42:39;;;;;;;22.33;13.00;;;1.10;88.70;;;1.42;66.10;99904.38;4947121;29;20047;-37
2022/01/13 08:45:10;;;;;;;21.67;13.10;;;1.10;88.40;;;1.45;65.73;99904.25;4963435;29;20065;-37
2022/01/13 08:47:39;;;;;;;22.20;12.30;;;1.20;88.50;;;1.47;65.56;99902.44;4963194;29;20052;-37
2022/01/13 08:50:08;;;;;;;19.10;11.27;;;1.20;88.50;;;1.51;65.54;99909.34;4963772;29;20057;-37
2022/01/13 08:52:38;;;;;;;17.30;9.67;;;1.20;88.80;;;1.55;65.76;99910.06;4963697;29;20305;-37
2022/01/13 08:55:07;;;;;;;15.43;11.17;;;1.30;89.00;;;1.58;65.65;99917.84;4963178;29;20051;-37
2022/01/13 08:57:35;;;;;;;19.07;11.40;;;1.30;89.00;;;1.59;66.30;99911.72;4966679;29;20333;-37
2022/01/13 09:00:08;;;;;;;18.60;10.60;;;1.30;89.10;;;1.62;65.90;99911.59;4965030;29;20928;-37
2022/01/13 09:02:41;;;;;;;18.37;10.60;;;1.40;89.30;;;1.63;66.01;99904.56;4966938;29;20055;-37
2022/01/13 09:05:13;;;;;;;16.60;10.50;;;1.40;89.30;;;1.64;66.01;99909.78;4958430;29;20057;-37
2022/01/13 09:07:41;;;;;;;15.40;8.43;;;1.40;89.60;;;1.67;66.42;99906.22;4958588;29;20067;-37
2022/01/13 09:10:11;;;;;;;15.33;8.73;;;1.50;89.80;;;1.70;66.30;99904.31;4965675;29;20053;-37
2022/01/13 09:12:40;;;;;;;14.90;8.37;;;1.50;89.80;;;1.75;66.24;99901.56;4962737;29;20047;-37
2022/01/13 09:15:18;;;;;;;11.87;7.50;;;1.50;90.20;;;1.75;66.13;99886.66;4959034;28;20047;-37
2022/01/13 09:17:53;;;;;;;11.43;7.93;;;1.50;90.70;;;1.75;66.36;99889.28;4949435;28;20458;-37
2022/01/13 09:20:38;;;;;;;12.90;7.50;;;1.50;90.80;;;1.79;66.00;99889.19;4938570;29;20051;-37
2022/01/13 09:23:12;;;;;;;11.07;7.37;;;1.60;90.60;;;1.82;66.43;99887.28;4953584;29;21675;-37
2022/01/13 09:25:43;;;;;;;11.88;6.90;;;1.60;90.80;;;1.84;65.95;99890.75;4937876;29;20245;-37
2022/01/13 09:28:12;;;;;;;10.23;6.00;;;1.60;90.60;;;1.85;65.94;99889.00;4954252;29;20062;-37
2022/01/13 09:30:40;;;;;;;9.60;6.27;;;1.60;90.60;;;1.85;66.17;99886.34;4954870;29;20081;-37
2022/01/13 09:33:08;;;;;;;9.80;6.20;;;1.60;90.70;;;1.79;66.33;99878.69;4954095;29;20129;-37
2022/01/13 09:35:36;;;;;;;9.17;6.43;;;1.50;90.80;;;1.75;65.90;99877.94;4961860;28;20039;-37
2022/01/13 09:38:04;;;;;;;10.43;5.90;;;1.50;91.10;;;1.75;66.13;99885.81;4966178;29;20068;-37
2022/01/13 09:40:32;;;;;;;9.60;6.20;;;1.50;91.50;;;1.74;66.00;99876.19;4966981;29;20043;-37
2022/01/13 09:43:02;;;;;;;7.43;5.70;;;1.50;91.80;;;1.73;65.99;99882.38;4966758;29;20058;-37
2022/01/13 09:45:30;;;;;;;9.93;6.13;;;1.50;92.20;;;1.74;66.35;99884.06;4965667;29;20054;-37
2022/01/13 09:47:58;;;;;;;11.53;6.97;;;1.40;92.30;;;1.70;66.18;99879.84;4965913;29;20051;-37
2022/01/13 09:50:26;;;;;;;11.40;7.03;;;1.40;92.90;;;1.71;65.93;99885.03;4966654;29;20245;-37
2022/01/13 09:52:54;;;;;;;10.20;7.30;;;1.40;92.70;;;1.72;65.88;99891.16;4966720;29;20039;-37
2022/01/13 09:55:22;;;;;;;13.33;7.90;;;1.40;93.30;;;1.72;65.97;99891.16;4966636;29;20261;-37
2022/01/13 09:57:52;;;;;;;10.53;6.47;;;1.40;93.70;;;1.75;66.47;99891.06;4966085;29;20050;-37
2022/01/13 10:00:24;;;;;;;13.20;7.27;;;1.40;94.00;;;1.75;66.01;99894.53;4966292;29;20066;-37
2022/01/13 10:02:53;;;;;;;10.17;7.07;;;1.40;94.10;;;1.76;66.09;99901.53;4965949;29;20059;-37
2022/01/13 10:05:23;;;;;;;11.70;7.40;;;1.40;93.80;;;1.75;66.10;99894.53;4966304;29;20250;-37
2022/01/13 10:07:52;;;;;;;13.50;7.60;;;1.40;93.90;;;1.75;66.30;99888.44;4965038;28;20057;-37
2022/01/13 10:10:31;;;;;;;12.27;8.00;;;1.40;94.60;;;1.74;65.87;99887.56;4966234;29;20055;-37
2022/01/13 10:13:08;;;;;;;13.07;7.67;;;1.40;93.50;;;1.77;66.24;99890.09;4966169;29;20051;-37
2022/01/13 10:18:47;;;;;;;13.27;8.60;;;1.40;93.10;;;1.80;66.26;99881.25;4965849;29;20045;-37
2022/01/13 10:21:18;;;;;;;13.45;8.85;;;1.50;92.90;;;1.80;65.98;99870.72;4966127;29;20051;-37
2022/01/13 10:24:09;;;;;;;12.70;8.47;;;1.50;92.70;;;1.82;65.77;99879.41;4958681;29;20055;-38
2022/01/13 10:26:55;;;;;;;14.53;9.33;;;1.50;92.80;;;1.84;66.20;99875.00;4965122;29;20240;-37
2022/01/13 10:29:39;;;;;;;16.27;9.77;;;1.50;92.40;;;1.88;66.32;99876.59;4966106;29;20047;-37
2022/01/13 10:32:11;;;;;;;15.90;8.77;;;1.60;91.90;;;1.90;65.91;99872.16;4965682;29;20059;-37
2022/01/13 10:34:45;;;;;;;15.47;9.30;;;1.50;91.50;;;1.91;65.90;99871.22;4965934;29;20047;-37
2022/01/13 10:37:14;;;;;;;15.68;9.52;;;1.60;91.30;;;1.94;66.09;99875.53;4965464;29;20051;-37
2022/01/13 10:39:54;;;;;;;17.43;10.77;;;1.60;91.10;;;1.94;66.21;99873.78;4965892;29;20049;-37
2022/01/13 10:45:26;;;;;;;18.10;10.10;;;1.70;90.70;;;1.99;66.10;99870.97;4965146;29;20057;-37
2022/01/13 10:48:02;;;;;;;15.77;10.67;;;1.60;90.00;;;2.03;65.77;99869.09;4956513;29;20062;-37
2022/01/13 10:51:04;;;;;;;16.50;11.33;;;1.70;89.60;;;2.05;65.71;99875.16;4965357;29;20254;-37
2022/01/13 10:53:39;;;;;;;18.73;11.27;;;1.80;89.20;;;2.06;65.23;99876.88;4951768;29;20057;-37
2022/01/13 10:56:14;;;;;;;17.43;11.60;;;1.80;88.90;;;2.08;65.41;99875.91;4965435;29;20210;-37
2022/01/13 10:58:53;;;;;;;18.10;10.83;;;1.90;88.30;;;2.11;65.77;99865.31;4957560;29;20094;-37